createdAt,value
2023-03-04T00:00:06.477Z,82.64
2023-03-04T00:02:32.995Z,82.96
2023-03-04T00:04:59.489Z,82.64
2023-03-04T00:07:26.057Z,82.37
2023-03-04T00:09:52.575Z,82.78
2023-03-04T00:12:19.118Z,82.86
2023-03-04T00:14:45.677Z,83.14
2023-03-04T00:17:12.213Z,83.32
2023-03-04T00:19:38.821Z,83.10
2023-03-04T00:22:05.369Z,83.02
2023-03-04T00:24:32.387Z,83.41
2023-03-04T00:26:59.025Z,83.55
2023-03-04T00:29:25.664Z,83.09
2023-03-04T00:37:03.684Z,82.22
2023-03-04T00:39:30.215Z,82.63
2023-03-04T00:41:56.691Z,82.31
2023-03-04T00:44:23.212Z,81.97
2023-03-04T00:46:49.735Z,82.70
2023-03-04T00:49:16.252Z,83.45
2023-03-04T00:51:42.859Z,83.87
2023-03-04T00:54:09.525Z,84.19
2023-03-04T00:56:36.113Z,84.26
2023-03-04T00:59:02.724Z,84.26
2023-03-04T01:01:29.423Z,84.39
2023-03-04T01:03:56.152Z,83.78
2023-03-04T01:06:22.708Z,82.70
2023-03-04T01:08:49.264Z,82.84
2023-03-04T01:11:15.853Z,82.50
2023-03-04T01:13:42.458Z,82.54
2023-03-04T01:18:47.885Z,82.74
2023-03-04T01:21:14.926Z,82.87
2023-03-04T01:23:41.576Z,82.94
2023-03-04T01:26:08.134Z,83.33
2023-03-04T01:28:36.017Z,83.76
2023-03-04T01:31:05.985Z,83.70
2023-03-04T01:33:32.551Z,83.26
2023-03-04T01:35:59.279Z,83.32
2023-03-04T01:38:25.946Z,83.94
2023-03-04T01:40:52.796Z,83.72
2023-03-04T01:43:23.480Z,83.25
2023-03-04T01:45:51.609Z,82.92
2023-03-04T01:48:22.119Z,83.90
2023-03-04T01:50:49.077Z,83.79
2023-03-04T01:53:23.180Z,84.60
2023-03-04T01:55:52.033Z,84.26
2023-03-04T01:58:18.722Z,84.09
2023-03-04T02:00:45.391Z,84.83
2023-03-04T02:05:50.118Z,85.00
2023-03-04T02:13:30.044Z,84.89
2023-03-04T02:15:56.715Z,84.52
2023-03-04T02:18:24.376Z,84.15
2023-03-04T02:21:15.444Z,84.42
2023-03-04T02:24:05.754Z,84.96
2023-03-04T02:26:33.139Z,85.08
2023-03-04T02:29:00.242Z,85.67
2023-03-04T02:31:30.262Z,85.35
2023-03-04T02:34:00.445Z,85.83
2023-03-04T02:36:28.416Z,85.59
2023-03-04T02:38:56.470Z,84.98
2023-03-04T02:41:26.350Z,85.33
2023-03-04T02:43:55.165Z,85.08
2023-03-04T02:46:21.754Z,84.18
2023-03-04T02:48:49.832Z,84.41
2023-03-04T02:51:16.432Z,84.45
2023-03-04T02:53:43.212Z,84.54
2023-03-04T02:56:09.714Z,84.80
2023-03-04T02:58:36.338Z,85.59
2023-03-04T03:01:03.081Z,85.13
2023-03-04T03:03:29.756Z,85.62
2023-03-04T03:05:56.365Z,85.54
2023-03-04T03:08:23.117Z,85.74
2023-03-04T03:10:49.770Z,85.49
2023-03-04T03:13:16.289Z,85.50
2023-03-04T03:15:43.085Z,84.77
2023-03-04T03:18:11.017Z,84.41
2023-03-04T03:20:38.038Z,84.54
2023-03-04T03:23:05.139Z,83.95
2023-03-04T03:25:31.723Z,84.65
2023-03-04T03:27:58.292Z,84.63
2023-03-04T03:30:24.795Z,84.56
2023-03-04T03:32:51.422Z,85.22
2023-03-04T03:35:18.127Z,85.09
2023-03-04T03:37:44.728Z,85.15
2023-03-04T03:40:12.076Z,85.56
2023-03-04T03:42:38.610Z,85.55
2023-03-04T03:45:05.601Z,84.87
2023-03-04T03:47:32.443Z,84.51
2023-03-04T03:49:59.069Z,84.54
2023-03-04T03:52:25.607Z,84.44
2023-03-04T03:54:52.247Z,84.50
2023-03-04T03:57:18.959Z,84.50
2023-03-04T03:59:45.703Z,83.99
2023-03-04T04:02:12.377Z,83.71
2023-03-04T04:04:39.057Z,83.70
2023-03-04T04:07:05.705Z,84.37
2023-03-04T04:09:32.272Z,84.76
2023-03-04T04:11:58.819Z,85.12
2023-03-04T04:14:25.348Z,85.32
2023-03-04T04:16:52.061Z,86.08
2023-03-04T04:19:20.445Z,86.34
2023-03-04T04:21:47.570Z,85.72
2023-03-04T04:24:14.197Z,86.52
2023-03-04T04:26:41.133Z,86.33
2023-03-04T04:29:09.157Z,86.15
2023-03-04T04:31:36.338Z,85.83
2023-03-04T04:34:02.948Z,85.69
2023-03-04T04:36:29.605Z,85.64
2023-03-04T04:38:56.145Z,85.53
2023-03-04T04:41:26.356Z,85.48
2023-03-04T04:43:53.106Z,85.70
2023-03-04T04:46:20.335Z,86.10
2023-03-04T04:48:47.345Z,85.91
2023-03-04T04:51:13.867Z,85.11
2023-03-04T04:53:40.764Z,85.66
2023-03-04T04:56:20.262Z,85.47
2023-03-04T05:01:19.944Z,85.40
2023-03-04T05:03:46.826Z,86.06
2023-03-04T05:08:47.212Z,85.24
2023-03-04T05:11:14.198Z,86.02
2023-03-04T05:13:40.907Z,86.11
2023-03-04T05:18:45.933Z,86.80
2023-03-04T05:21:12.699Z,86.36
2023-03-04T05:23:42.360Z,86.77
2023-03-04T05:26:13.977Z,86.45
2023-03-04T05:31:18.176Z,86.31
2023-03-04T05:33:44.728Z,86.67
2023-03-04T05:36:11.457Z,86.33
2023-03-04T05:41:15.392Z,86.37
2023-03-04T05:43:44.813Z,85.31
2023-03-04T05:46:16.160Z,85.45
2023-03-04T05:48:42.879Z,85.34
2023-03-04T05:51:09.661Z,85.05
2023-03-04T05:53:37.033Z,85.16
2023-03-04T05:56:11.303Z,85.55
2023-03-04T05:58:37.848Z,85.89
2023-03-04T06:01:05.120Z,85.59
2023-03-04T06:03:31.765Z,86.18
2023-03-04T06:05:59.157Z,86.48
2023-03-04T06:08:26.132Z,86.56
2023-03-04T06:10:54.620Z,86.53
2023-03-04T06:13:21.631Z,86.38
2023-03-04T06:15:53.280Z,86.21
2023-03-04T06:18:19.906Z,84.58
2023-03-04T06:20:46.439Z,83.61
2023-03-04T06:23:12.982Z,82.80
2023-03-04T06:25:39.523Z,83.60
2023-03-04T06:28:06.086Z,84.52
2023-03-04T06:33:03.977Z,84.70
2023-03-04T06:35:30.521Z,84.78
2023-03-04T06:37:57.058Z,85.57
2023-03-04T06:40:23.588Z,85.13
2023-03-04T06:42:50.097Z,86.22
2023-03-04T06:45:16.675Z,87.04
2023-03-04T06:47:45.118Z,87.57
2023-03-04T06:52:51.684Z,88.05
2023-03-04T06:55:18.279Z,88.13
2023-03-04T06:57:46.425Z,88.59
2023-03-04T07:00:15.479Z,88.53
2023-03-04T07:02:42.226Z,88.65
2023-03-04T07:05:11.235Z,88.62
2023-03-04T07:07:38.584Z,88.69
2023-03-04T07:10:05.698Z,87.34
2023-03-04T07:12:32.840Z,86.83
2023-03-04T07:14:59.513Z,86.55
2023-03-04T07:17:26.178Z,86.46
2023-03-04T07:19:52.761Z,85.96
2023-03-04T07:22:19.304Z,86.27
2023-03-04T07:24:45.877Z,87.02
2023-03-04T07:27:12.614Z,86.93
2023-03-04T07:29:39.129Z,87.34
2023-03-04T07:32:09.839Z,86.53
2023-03-04T07:34:36.441Z,87.38
2023-03-04T07:37:03.075Z,87.60
2023-03-04T07:42:07.876Z,87.70
2023-03-04T07:44:34.373Z,86.39
2023-03-04T07:47:00.920Z,86.43
2023-03-04T07:49:27.488Z,86.20
2023-03-04T07:51:54.014Z,87.12
2023-03-04T07:54:20.549Z,86.69
2023-03-04T07:56:47.229Z,86.12
2023-03-04T07:59:13.858Z,86.18
2023-03-04T08:01:40.385Z,85.44
2023-03-04T08:04:07.654Z,86.06
2023-03-04T08:06:34.668Z,86.06
2023-03-04T08:09:07.236Z,85.64
2023-03-04T08:11:36.611Z,84.82
2023-03-04T08:14:03.696Z,85.30
2023-03-04T08:16:30.716Z,85.49
2023-03-04T08:18:59.526Z,85.74
2023-03-04T08:21:27.553Z,86.34
2023-03-04T08:26:30.042Z,88.02
2023-03-04T08:28:57.756Z,84.36
2023-03-04T08:31:25.149Z,83.74
2023-03-04T08:36:24.341Z,84.10
2023-03-04T08:38:51.038Z,83.98
2023-03-04T08:41:17.814Z,84.33
2023-03-04T08:43:44.400Z,82.65
2023-03-04T08:48:42.175Z,84.43
2023-03-04T08:51:13.807Z,83.13
2023-03-04T08:53:41.133Z,82.82
2023-03-04T08:56:08.337Z,83.13
2023-03-04T08:58:35.233Z,83.21
2023-03-04T09:01:02.341Z,84.26
2023-03-04T09:03:28.975Z,84.06
2023-03-04T09:05:55.914Z,83.63
2023-03-04T09:08:22.645Z,84.19
2023-03-04T09:10:53.304Z,83.58
2023-03-04T09:13:20.052Z,83.44
2023-03-04T09:15:48.837Z,82.15
2023-03-04T09:18:16.611Z,83.22
2023-03-04T09:20:43.553Z,83.31
2023-03-04T09:23:10.821Z,82.91
2023-03-04T09:25:38.452Z,81.71
2023-03-04T09:28:05.947Z,81.65
2023-03-04T09:30:32.878Z,81.37
2023-03-04T09:32:59.574Z,80.83
2023-03-04T09:35:26.190Z,80.86
2023-03-04T09:37:53.073Z,81.49
2023-03-04T09:40:22.553Z,81.98
2023-03-04T09:42:52.902Z,80.67
2023-03-04T09:45:23.617Z,80.57
2023-03-04T09:47:54.580Z,80.58
2023-03-04T09:50:22.308Z,80.60
2023-03-04T09:52:54.586Z,80.18
2023-03-04T09:58:39.737Z,79.78
2023-03-04T10:01:26.735Z,79.39
2023-03-04T10:03:59.423Z,79.15
2023-03-04T10:06:37.533Z,78.84
2023-03-04T10:09:27.887Z,79.91
2023-03-04T10:11:55.705Z,78.83
2023-03-04T10:14:29.709Z,78.22
2023-03-04T10:17:14.291Z,78.14
2023-03-04T10:19:52.874Z,77.04
2023-03-04T10:22:26.931Z,77.37
2023-03-04T10:24:56.640Z,75.74
2023-03-04T10:27:24.861Z,75.34
2023-03-04T10:29:51.674Z,75.87
2023-03-04T10:32:20.201Z,75.50
2023-03-04T10:34:46.927Z,74.42
2023-03-04T10:37:13.777Z,74.05
2023-03-04T10:39:49.400Z,74.31
2023-03-04T10:42:16.006Z,73.50
2023-03-04T10:44:44.040Z,72.69
2023-03-04T10:47:14.620Z,72.48
2023-03-04T10:49:53.518Z,73.48
2023-03-04T10:52:28.733Z,73.25
2023-03-04T10:55:06.068Z,72.35
2023-03-04T10:57:41.782Z,71.99
2023-03-04T11:00:17.207Z,71.73
2023-03-04T11:02:45.492Z,72.36
2023-03-04T11:05:14.859Z,72.73
2023-03-04T11:07:54.982Z,72.27
2023-03-04T11:10:30.168Z,73.03
2023-03-04T11:13:02.460Z,72.82
2023-03-04T11:15:31.399Z,72.82
2023-03-04T11:18:04.669Z,74.41
2023-03-04T11:20:42.018Z,72.38
2023-03-04T11:23:16.674Z,71.45
2023-03-04T11:25:55.222Z,72.57
2023-03-04T11:29:00.945Z,72.45
2023-03-04T11:31:54.869Z,75.76
2023-03-04T11:34:54.495Z,70.85
2023-03-04T11:37:33.018Z,70.63
2023-03-04T11:40:05.277Z,70.60
2023-03-04T11:42:34.525Z,69.22
2023-03-04T11:48:01.730Z,67.70
2023-03-04T11:53:28.982Z,67.63
2023-03-04T11:56:04.463Z,68.14
2023-03-04T11:58:49.995Z,69.75
2023-03-04T12:01:32.712Z,67.88
2023-03-04T12:04:24.769Z,67.75
2023-03-04T12:07:09.395Z,67.47
2023-03-04T12:10:08.123Z,68.27
2023-03-04T12:13:09.914Z,68.42
2023-03-04T12:15:39.513Z,67.46
2023-03-04T12:18:23.999Z,68.45
2023-03-04T12:20:53.172Z,69.34
2023-03-04T12:23:28.961Z,69.18
2023-03-04T12:26:22.239Z,69.62
2023-03-04T12:29:07.526Z,69.83
2023-03-04T12:31:37.168Z,69.88
2023-03-04T12:34:19.372Z,69.96
2023-03-04T12:36:51.776Z,69.98
2023-03-04T12:39:28.217Z,70.43
2023-03-04T12:42:37.285Z,70.14
2023-03-04T12:45:20.509Z,69.30
2023-03-04T12:48:01.732Z,72.28
2023-03-04T12:50:59.542Z,67.28
2023-03-04T12:53:51.575Z,67.73
2023-03-04T12:58:59.717Z,69.08
2023-03-04T13:01:37.012Z,69.13
2023-03-04T13:04:06.553Z,69.66
2023-03-04T13:06:53.472Z,69.67
2023-03-04T13:09:33.985Z,69.70
2023-03-04T13:12:16.260Z,69.04
2023-03-04T13:15:08.500Z,69.42
2023-03-04T13:17:50.261Z,68.57
2023-03-04T13:20:40.640Z,68.66
2023-03-04T13:23:26.371Z,68.84
2023-03-04T13:25:55.483Z,68.82
2023-03-04T13:28:28.372Z,68.52
2023-03-04T13:30:59.583Z,68.76
2023-03-04T13:33:26.098Z,68.68
2023-03-04T13:36:04.445Z,68.15
2023-03-04T13:38:31.255Z,67.88
2023-03-04T13:41:25.246Z,67.57
2023-03-04T13:46:27.706Z,67.12
2023-03-04T13:51:33.283Z,67.17
2023-03-04T13:53:59.790Z,67.21
2023-03-04T13:56:50.413Z,66.87
2023-03-04T13:59:32.445Z,67.51
2023-03-04T14:02:02.082Z,68.44
2023-03-04T14:04:35.324Z,67.65
2023-03-04T14:07:23.958Z,68.18
2023-03-04T14:10:12.688Z,68.51
2023-03-04T14:12:47.831Z,68.52
2023-03-04T14:15:14.309Z,67.61
2023-03-04T14:17:46.378Z,66.89
2023-03-04T14:20:26.759Z,67.92
2023-03-04T14:22:54.253Z,67.71
2023-03-04T14:25:30.932Z,67.39
2023-03-04T14:28:12.637Z,67.57
2023-03-04T14:30:43.702Z,67.96
2023-03-04T14:36:01.572Z,68.37
2023-03-04T14:41:19.669Z,68.15
2023-03-04T14:44:23.859Z,68.16
2023-03-04T14:47:06.969Z,68.30
2023-03-04T14:49:37.115Z,68.32
2023-03-04T14:52:04.156Z,68.34
2023-03-04T14:54:33.418Z,67.90
2023-03-04T14:57:02.082Z,68.71
2023-03-04T14:59:33.570Z,68.64
2023-03-04T15:02:24.072Z,68.34
2023-03-04T15:04:53.506Z,68.21
2023-03-04T15:07:33.437Z,68.25
2023-03-04T15:10:02.262Z,68.59
2023-03-04T15:12:31.939Z,68.24
2023-03-04T15:15:03.850Z,67.64
2023-03-04T15:17:39.344Z,68.36
2023-03-04T15:22:57.339Z,67.61
2023-03-04T15:25:24.178Z,68.23
2023-03-04T15:27:51.528Z,67.98
2023-03-04T15:32:57.992Z,67.83
2023-03-04T15:35:27.627Z,67.49
2023-03-04T15:37:56.354Z,67.47
2023-03-04T15:40:33.240Z,67.63
2023-03-04T15:43:02.071Z,68.16
2023-03-04T15:45:37.100Z,67.83
2023-03-04T15:50:43.898Z,68.01
2023-03-04T15:53:25.764Z,71.17
2023-03-04T15:55:53.002Z,67.54
2023-03-04T15:58:20.072Z,67.57
2023-03-04T16:00:46.739Z,67.98
2023-03-04T16:03:16.759Z,68.78
2023-03-04T16:05:44.821Z,68.73
2023-03-04T16:08:14.550Z,68.81
2023-03-04T16:10:43.855Z,68.81
2023-03-04T16:13:15.983Z,68.71
2023-03-04T16:15:43.505Z,68.60
2023-03-04T16:18:14.527Z,68.69
2023-03-04T16:20:47.474Z,69.38
2023-03-04T16:23:18.825Z,68.64
2023-03-04T16:25:47.286Z,67.81
2023-03-04T16:28:13.941Z,68.28
2023-03-04T16:30:41.052Z,68.63
2023-03-04T16:33:08.064Z,69.14
2023-03-04T16:35:36.774Z,69.02
2023-03-04T16:38:04.549Z,68.97
2023-03-04T16:40:31.440Z,69.35
2023-03-04T16:42:58.085Z,68.52
2023-03-04T16:45:27.176Z,69.24
2023-03-04T16:47:54.256Z,68.62
2023-03-04T16:50:27.119Z,68.95
2023-03-04T16:52:55.135Z,69.04
2023-03-04T16:55:25.706Z,69.96
2023-03-04T16:57:53.930Z,70.24
2023-03-04T17:00:22.799Z,70.19
2023-03-04T17:03:00.532Z,69.69
2023-03-04T17:08:04.283Z,69.71
2023-03-04T17:10:30.902Z,69.00
2023-03-04T17:12:57.548Z,69.05
2023-03-04T17:15:24.238Z,69.03
2023-03-04T17:17:52.822Z,69.22
2023-03-04T17:20:19.936Z,69.30
2023-03-04T17:22:46.506Z,70.05
2023-03-04T17:25:14.232Z,69.19
2023-03-04T17:27:41.833Z,68.97
2023-03-04T17:30:11.555Z,69.61
2023-03-04T17:35:11.449Z,69.84
2023-03-04T17:37:38.298Z,70.10
2023-03-04T17:40:09.182Z,70.47
2023-03-04T17:45:07.835Z,69.79
2023-03-04T17:47:36.183Z,69.44
2023-03-04T17:50:04.327Z,70.41
2023-03-04T17:55:11.265Z,68.76
2023-03-04T17:57:38.324Z,67.85
2023-03-04T18:00:05.804Z,67.54
2023-03-04T18:02:32.383Z,68.54
2023-03-04T18:04:58.999Z,67.81
2023-03-04T18:07:25.516Z,67.62
2023-03-04T18:09:52.310Z,67.54
2023-03-04T18:12:18.932Z,68.04
2023-03-04T18:14:45.625Z,67.50
2023-03-04T18:17:12.146Z,67.25
2023-03-04T18:22:17.399Z,68.22
2023-03-04T18:24:43.977Z,68.97
2023-03-04T18:27:10.517Z,68.51
2023-03-04T18:29:37.325Z,68.60
2023-03-04T18:32:04.118Z,68.87
2023-03-04T18:34:30.701Z,68.45
2023-03-04T18:39:28.538Z,69.55
2023-03-04T18:41:55.100Z,68.39
2023-03-04T18:44:21.713Z,68.36
2023-03-04T18:46:52.851Z,68.08
2023-03-04T18:49:21.004Z,68.15
2023-03-04T18:51:47.531Z,68.30
2023-03-04T18:54:14.159Z,68.31
2023-03-04T18:56:47.414Z,68.64
2023-03-04T18:59:28.042Z,68.98
2023-03-04T19:01:54.943Z,69.03
2023-03-04T19:06:56.801Z,69.67
2023-03-04T19:09:23.325Z,69.85
2023-03-04T19:11:50.004Z,69.47
2023-03-04T19:14:16.522Z,69.71
2023-03-04T19:16:43.170Z,70.42
2023-03-04T19:19:09.697Z,70.70
2023-03-04T19:21:41.975Z,69.70
2023-03-04T19:26:40.277Z,79.17
2023-03-04T19:29:07.425Z,76.90
2023-03-04T19:31:34.149Z,67.01
2023-03-04T19:34:00.753Z,67.45
2023-03-04T19:36:27.421Z,68.38
2023-03-04T19:38:55.544Z,68.78
2023-03-04T19:41:22.721Z,69.41
2023-03-04T19:43:49.711Z,70.35
2023-03-04T19:46:16.469Z,69.97
2023-03-04T19:51:22.084Z,69.42
2023-03-04T19:53:50.921Z,69.08
2023-03-04T19:56:17.929Z,69.54
2023-03-04T19:58:44.568Z,70.49
2023-03-04T20:01:28.316Z,69.52
2023-03-04T20:04:00.531Z,70.27
2023-03-04T20:06:27.317Z,70.38
2023-03-04T20:08:57.678Z,70.32
2023-03-04T20:11:25.166Z,70.74
2023-03-04T20:13:51.668Z,70.87
2023-03-04T20:16:18.422Z,71.05
2023-03-04T20:18:44.971Z,71.00
2023-03-04T20:21:11.893Z,70.70
2023-03-04T20:23:38.798Z,70.95
2023-03-04T20:26:05.750Z,70.88
2023-03-04T20:28:33.078Z,71.47
2023-03-04T20:31:15.844Z,71.43
2023-03-04T20:33:43.669Z,70.51
2023-03-04T20:38:41.587Z,71.13
2023-03-04T20:41:08.640Z,70.98
2023-03-04T20:43:35.203Z,70.88
2023-03-04T20:46:28.234Z,71.25
2023-03-04T20:48:59.243Z,71.22
2023-03-04T20:51:26.474Z,71.20
2023-03-04T20:53:55.382Z,71.12
2023-03-04T20:56:22.662Z,71.60
2023-03-04T20:58:49.891Z,71.43
2023-03-04T21:01:18.238Z,71.73
2023-03-04T21:03:45.611Z,71.44
2023-03-04T21:06:15.893Z,71.66
2023-03-04T21:08:43.733Z,72.30
2023-03-04T21:11:11.609Z,72.81
2023-03-04T21:13:41.134Z,72.43
2023-03-04T21:16:12.951Z,72.74
2023-03-04T21:18:40.373Z,72.16
2023-03-04T21:21:28.799Z,71.75
2023-03-04T21:23:56.940Z,72.03
2023-03-04T21:28:55.525Z,72.16
2023-03-04T21:31:28.885Z,72.43
2023-03-04T21:33:58.708Z,72.75
2023-03-04T21:36:25.224Z,72.49
2023-03-04T21:38:53.149Z,71.97
2023-03-04T21:43:53.958Z,72.93
2023-03-04T21:46:20.536Z,72.11
2023-03-04T21:48:48.336Z,72.16
2023-03-04T21:51:16.477Z,71.86
2023-03-04T21:53:43.583Z,71.46
2023-03-04T21:56:12.501Z,71.38
2023-03-04T21:58:42.230Z,71.53
2023-03-04T22:01:20.578Z,71.38
2023-03-04T22:03:51.654Z,71.34
2023-03-04T22:06:22.262Z,71.10
2023-03-04T22:08:49.738Z,71.01
2023-03-04T22:11:17.140Z,71.05
2023-03-04T22:13:43.780Z,71.36
2023-03-04T22:16:10.603Z,71.16
2023-03-04T22:18:39.851Z,70.89
2023-03-04T22:21:14.554Z,70.97
2023-03-04T22:23:41.614Z,71.26
2023-03-04T22:26:19.765Z,70.82
2023-03-04T22:28:46.984Z,71.20
2023-03-04T22:31:18.677Z,70.92
2023-03-04T22:33:45.888Z,70.87
2023-03-04T22:36:13.360Z,71.38
2023-03-04T22:38:40.937Z,71.38
2023-03-04T22:41:18.098Z,71.22
2023-03-04T22:43:45.563Z,72.16
2023-03-04T22:46:32.266Z,73.04
2023-03-04T22:49:01.730Z,73.06
2023-03-04T22:51:29.066Z,75.50
2023-03-04T22:53:56.075Z,72.25
2023-03-04T22:56:23.101Z,71.56
2023-03-04T22:58:49.907Z,72.00
2023-03-04T23:03:56.095Z,70.90
2023-03-04T23:06:25.489Z,71.07
2023-03-04T23:08:52.573Z,70.86
2023-03-04T23:11:22.882Z,71.27
2023-03-04T23:13:50.644Z,70.97
2023-03-04T23:16:19.042Z,70.61
2023-03-04T23:18:47.352Z,71.13
2023-03-04T23:21:20.607Z,71.00
2023-03-04T23:23:47.748Z,71.13
2023-03-04T23:26:17.338Z,70.84
2023-03-04T23:28:44.070Z,70.84
2023-03-04T23:31:10.828Z,71.52
2023-03-04T23:33:37.398Z,71.27
2023-03-04T23:36:04.211Z,71.86
2023-03-04T23:38:30.766Z,71.80
2023-03-04T23:40:57.543Z,71.41
2023-03-04T23:43:24.039Z,72.11
2023-03-04T23:45:50.599Z,71.32
2023-03-04T23:48:17.153Z,70.74
2023-03-04T23:50:50.930Z,70.64
2023-03-04T23:53:19.176Z,70.77
2023-03-04T23:55:46.253Z,70.93
2023-03-04T23:58:12.924Z,71.14
